createdAt,value
2018-01-28T00:00:10.129Z,6.55
2018-01-28T00:02:37.649Z,6.55
2018-01-28T00:05:05.183Z,6.57
2018-01-28T00:07:32.693Z,6.60
2018-01-28T00:10:00.226Z,6.61
2018-01-28T00:12:27.758Z,6.61
2018-01-28T00:14:55.302Z,6.65
2018-01-28T00:17:22.836Z,6.67
2018-01-28T00:19:50.390Z,6.68
2018-01-28T00:22:17.991Z,6.69
2018-01-28T00:24:45.520Z,6.72
2018-01-28T00:27:13.043Z,6.74
2018-01-28T00:29:40.569Z,6.74
2018-01-28T00:32:08.104Z,6.73
2018-01-28T00:34:35.629Z,6.73
2018-01-28T00:37:03.262Z,6.74
2018-01-28T00:39:30.777Z,6.75
2018-01-28T00:41:58.376Z,6.75
2018-01-28T00:44:25.904Z,6.74
2018-01-28T00:46:53.428Z,6.76
2018-01-28T00:49:21.054Z,6.72
2018-01-28T00:51:48.575Z,6.73
2018-01-28T00:54:16.108Z,6.75
2018-01-28T00:56:43.630Z,6.76
2018-01-28T00:59:11.197Z,6.77
2018-01-28T01:01:38.718Z,6.72
2018-01-28T01:04:06.245Z,6.75
2018-01-28T01:06:33.878Z,6.73
2018-01-28T01:09:01.449Z,6.74
2018-01-28T01:11:28.981Z,6.74
2018-01-28T01:13:56.515Z,6.74
2018-01-28T01:16:24.077Z,6.74
2018-01-28T01:18:52.506Z,6.75
2018-01-28T01:21:20.037Z,6.74
2018-01-28T01:23:47.625Z,6.73
2018-01-28T01:26:15.269Z,6.73
2018-01-28T01:28:42.804Z,6.74
2018-01-28T01:31:10.333Z,6.76
2018-01-28T01:33:37.892Z,6.75
2018-01-28T01:36:05.412Z,6.75
2018-01-28T01:38:32.937Z,6.75
2018-01-28T01:41:00.502Z,6.75
2018-01-28T01:43:28.029Z,6.77
2018-01-28T01:45:55.536Z,6.76
2018-01-28T01:48:23.112Z,6.75
2018-01-28T01:50:50.670Z,6.79
2018-01-28T01:53:18.249Z,6.77
2018-01-28T01:55:45.765Z,6.75
2018-01-28T01:58:13.278Z,6.73
2018-01-28T02:00:40.804Z,6.75
2018-01-28T02:03:08.316Z,6.74
2018-01-28T02:05:35.836Z,6.75
2018-01-28T02:08:03.498Z,6.73
2018-01-28T02:10:31.026Z,6.76
2018-01-28T02:12:58.541Z,6.76
2018-01-28T02:15:26.138Z,6.77
2018-01-28T02:17:53.681Z,6.76
2018-01-28T02:20:21.196Z,6.78
2018-01-28T02:22:48.722Z,6.79
2018-01-28T02:25:16.306Z,6.78
2018-01-28T02:27:43.834Z,6.78
2018-01-28T02:30:11.364Z,6.83
2018-01-28T02:32:38.991Z,6.85
2018-01-28T03:12:01.897Z,7.00
2018-01-28T03:14:29.424Z,7.04
2018-01-28T03:16:57.017Z,7.08
2018-01-28T03:19:24.530Z,7.10
2018-01-28T03:21:52.120Z,7.12
2018-01-28T03:24:19.629Z,7.16
2018-01-28T03:26:47.169Z,7.18
2018-01-28T03:29:14.681Z,7.22
2018-01-28T03:31:42.244Z,7.23
2018-01-28T03:34:09.765Z,7.23
2018-01-28T03:36:37.299Z,7.25
2018-01-28T03:39:04.827Z,7.26
2018-01-28T03:41:32.413Z,7.25
2018-01-28T03:43:59.937Z,7.22
2018-01-28T03:46:27.454Z,7.19
2018-01-28T03:48:54.984Z,7.24
2018-01-28T03:51:22.514Z,7.25
2018-01-28T03:53:50.080Z,7.20
2018-01-28T03:56:17.594Z,7.19
2018-01-28T03:58:45.117Z,7.13
2018-01-28T04:01:12.636Z,7.13
2018-01-28T04:03:40.240Z,6.99
2018-01-28T04:06:07.803Z,6.97
2018-01-28T04:08:35.323Z,6.96
2018-01-28T04:11:02.855Z,6.99
2018-01-28T04:13:30.483Z,6.98
2018-01-28T04:15:58.008Z,6.97
2018-01-28T04:18:25.604Z,6.95
2018-01-28T04:20:53.129Z,6.95
2018-01-28T04:23:20.652Z,6.95
2018-01-28T04:25:48.170Z,6.89
2018-01-28T04:28:15.680Z,6.90
2018-01-28T04:30:43.197Z,6.88
2018-01-28T04:33:10.742Z,6.90
2018-01-28T04:35:38.278Z,6.84
2018-01-28T04:38:05.830Z,6.87
2018-01-28T04:40:33.361Z,6.90
2018-01-28T04:43:01.103Z,6.76
2018-01-28T04:45:28.632Z,6.82
2018-01-28T04:47:56.154Z,6.82
2018-01-28T04:50:23.680Z,6.84
2018-01-28T04:52:51.203Z,6.92
2018-01-28T04:55:18.788Z,6.88
2018-01-28T04:57:46.312Z,6.86
2018-01-28T05:00:13.829Z,6.87
2018-01-28T05:02:41.340Z,6.92
2018-01-28T05:05:08.858Z,6.91
2018-01-28T05:07:36.370Z,6.86
2018-01-28T05:10:03.894Z,6.88
2018-01-28T05:12:31.416Z,6.85
2018-01-28T05:14:58.942Z,6.89
2018-01-28T05:17:26.535Z,6.94
2018-01-28T05:19:54.054Z,6.94
2018-01-28T05:22:21.573Z,6.98
2018-01-28T05:24:49.132Z,7.02
2018-01-28T05:27:16.653Z,6.96
2018-01-28T05:29:44.231Z,7.04
2018-01-28T05:32:11.745Z,7.03
2018-01-28T05:34:39.260Z,7.04
2018-01-28T05:37:06.836Z,7.05
2018-01-28T05:39:34.364Z,7.05
2018-01-28T05:42:01.933Z,7.05
2018-01-28T05:44:29.444Z,7.09
2018-01-28T05:46:56.993Z,7.10
2018-01-28T05:49:24.608Z,7.13
2018-01-28T05:51:52.144Z,7.11
2018-01-28T05:54:19.757Z,7.05
2018-01-28T05:56:47.288Z,7.02
2018-01-28T05:59:14.867Z,7.01
2018-01-28T06:01:42.601Z,7.09
2018-01-28T06:04:10.281Z,7.04
2018-01-28T06:06:38.178Z,7.05
2018-01-28T06:09:05.729Z,6.99
2018-01-28T06:11:33.278Z,7.00
2018-01-28T06:14:00.793Z,6.97
2018-01-28T06:16:28.319Z,6.98
2018-01-28T06:18:55.843Z,6.96
2018-01-28T06:21:23.416Z,6.92
2018-01-28T06:23:50.932Z,6.90
2018-01-28T06:26:18.532Z,6.89
2018-01-28T06:28:46.054Z,6.94
2018-01-28T06:31:13.636Z,6.94
2018-01-28T06:33:41.204Z,6.94
2018-01-28T06:36:08.773Z,6.93
2018-01-28T06:38:36.293Z,6.93
2018-01-28T06:41:03.809Z,6.94
2018-01-28T06:43:31.334Z,6.92
2018-01-28T06:45:58.857Z,6.91
2018-01-28T06:48:26.385Z,6.91
2018-01-28T06:50:53.902Z,7.01
2018-01-28T06:53:21.478Z,6.99
2018-01-28T06:55:48.994Z,7.04
2018-01-28T06:58:16.583Z,7.12
2018-01-28T07:00:44.130Z,7.08
2018-01-28T07:03:11.654Z,7.09
2018-01-28T07:05:39.276Z,7.08
2018-01-28T07:08:06.837Z,7.09
2018-01-28T07:10:34.394Z,7.10
2018-01-28T07:13:02.604Z,7.08
2018-01-28T07:15:30.234Z,7.13
2018-01-28T07:17:57.746Z,7.09
2018-01-28T07:20:25.270Z,7.12
2018-01-28T07:22:52.796Z,7.12
2018-01-28T07:25:20.312Z,7.15
2018-01-28T07:27:47.922Z,7.11
2018-01-28T07:30:15.423Z,7.13
2018-01-28T07:32:43.015Z,7.18
2018-01-28T07:35:10.538Z,7.18
2018-01-28T07:37:38.053Z,7.16
2018-01-28T07:40:05.553Z,7.10
2018-01-28T07:42:33.071Z,7.14
2018-01-28T07:45:00.598Z,7.21
2018-01-28T07:47:28.125Z,7.24
2018-01-28T07:49:55.652Z,7.20
2018-01-28T07:52:23.213Z,7.27
2018-01-28T07:54:50.723Z,7.30
2018-01-28T07:57:18.237Z,7.35
2018-01-28T07:59:45.767Z,7.37
2018-01-28T08:02:13.289Z,7.42
2018-01-28T08:04:40.846Z,7.39
2018-01-28T08:07:08.363Z,7.42
2018-01-28T08:09:36.263Z,7.46
2018-01-28T08:12:16.637Z,7.50
2018-01-28T08:14:44.164Z,7.62
2018-01-28T08:17:11.682Z,7.67
2018-01-28T08:19:39.215Z,7.68
2018-01-28T08:22:06.729Z,7.67
2018-01-28T08:24:34.234Z,7.62
2018-01-28T08:27:06.296Z,7.71
2018-01-28T08:29:34.813Z,7.69
2018-01-28T08:32:02.321Z,7.70
2018-01-28T08:34:29.836Z,7.63
2018-01-28T08:36:57.388Z,7.63
2018-01-28T08:39:24.941Z,7.62
2018-01-28T08:41:52.456Z,7.64
2018-01-28T08:44:19.972Z,7.68
2018-01-28T08:46:47.490Z,7.72
2018-01-28T08:49:15.006Z,7.77
2018-01-28T08:51:42.525Z,7.74
2018-01-28T08:54:10.043Z,7.77
2018-01-28T08:56:37.560Z,7.82
2018-01-28T08:59:05.080Z,7.91
2018-01-28T09:01:32.598Z,7.85
2018-01-28T09:04:00.176Z,7.97
2018-01-28T09:06:27.728Z,8.01
2018-01-28T09:08:55.242Z,8.13
2018-01-28T09:11:22.760Z,8.18
2018-01-28T09:13:50.271Z,8.27
2018-01-28T09:16:17.797Z,8.27
2018-01-28T09:18:45.440Z,8.33
2018-01-28T09:21:13.018Z,8.48
2018-01-28T09:23:40.661Z,8.64
2018-01-28T09:26:08.174Z,9.01
2018-01-28T09:28:37.727Z,9.00
2018-01-28T09:31:05.245Z,9.07
2018-01-28T09:33:32.843Z,9.43
2018-01-28T09:36:00.386Z,9.84
2018-01-28T09:38:27.970Z,9.98
2018-01-28T09:40:55.498Z,10.07
2018-01-28T09:43:23.068Z,9.86
2018-01-28T09:45:50.597Z,9.78
2018-01-28T09:48:18.141Z,10.13
2018-01-28T09:50:45.666Z,10.35
2018-01-28T09:53:13.441Z,10.49
2018-01-28T09:55:40.953Z,10.45
2018-01-28T09:58:08.549Z,10.15
2018-01-28T10:00:36.069Z,10.19
2018-01-28T10:03:03.600Z,10.36
2018-01-28T10:05:31.130Z,10.21
2018-01-28T10:07:58.687Z,10.41
2018-01-28T10:10:26.218Z,10.34
2018-01-28T10:12:53.779Z,10.38
2018-01-28T10:15:21.374Z,10.67
2018-01-28T10:17:48.894Z,10.66
2018-01-28T10:20:16.419Z,10.59
2018-01-28T10:22:43.954Z,10.66
2018-01-28T10:25:11.485Z,10.52
2018-01-28T10:27:39.021Z,10.35
2018-01-28T10:30:06.565Z,10.61
2018-01-28T10:32:34.094Z,10.45
2018-01-28T10:35:01.609Z,10.25
2018-01-28T10:37:29.141Z,10.30
2018-01-28T10:39:56.660Z,10.25
2018-01-28T10:42:24.187Z,10.38
2018-01-28T10:44:51.717Z,10.18
2018-01-28T10:47:19.243Z,10.08
2018-01-28T10:49:46.807Z,10.15
2018-01-28T10:52:14.326Z,9.96
2018-01-28T10:54:41.877Z,9.95
2018-01-28T10:57:09.403Z,9.96
2018-01-28T10:59:36.916Z,9.86
2018-01-28T11:02:04.446Z,9.80
2018-01-28T11:04:32.013Z,9.86
2018-01-28T11:06:59.538Z,9.70
2018-01-28T11:09:27.176Z,9.75
2018-01-28T11:11:54.701Z,9.84
2018-01-28T11:14:22.227Z,9.76
2018-01-28T11:16:49.760Z,9.91
2018-01-28T11:19:17.272Z,9.90
2018-01-28T11:21:44.789Z,9.79
2018-01-28T11:24:12.305Z,9.86
2018-01-28T11:26:39.832Z,10.01
2018-01-28T11:29:07.348Z,9.91
2018-01-28T11:31:34.883Z,9.93
2018-01-28T11:34:02.401Z,9.91
2018-01-28T11:36:30.031Z,9.79
2018-01-28T11:38:57.556Z,10.01
2018-01-28T11:41:25.148Z,9.93
2018-01-28T11:43:52.712Z,9.89
2018-01-28T11:46:20.229Z,9.94
2018-01-28T11:48:47.831Z,10.07
2018-01-28T11:51:15.404Z,9.85
2018-01-28T11:53:42.904Z,9.64
2018-01-28T11:56:10.439Z,9.52
2018-01-28T11:58:37.949Z,9.49
2018-01-28T12:01:05.529Z,9.54
2018-01-28T12:03:33.055Z,9.51
2018-01-28T12:06:00.590Z,9.57
2018-01-28T12:08:28.209Z,9.61
2018-01-28T12:10:55.725Z,9.75
2018-01-28T12:13:23.249Z,9.73
2018-01-28T12:15:50.886Z,9.60
2018-01-28T12:18:18.401Z,9.71
2018-01-28T12:20:45.928Z,9.67
2018-01-28T12:23:13.444Z,9.58
2018-01-28T12:25:40.973Z,9.35
2018-01-28T12:28:08.579Z,9.34
2018-01-28T12:30:36.098Z,9.21
2018-01-28T12:33:03.631Z,9.24
2018-01-28T12:35:31.163Z,9.24
2018-01-28T12:37:58.676Z,9.29
2018-01-28T12:40:26.201Z,9.30
2018-01-28T12:42:53.745Z,9.19
2018-01-28T12:45:21.257Z,9.31
2018-01-28T12:47:48.817Z,9.21
2018-01-28T12:50:16.345Z,9.19
2018-01-28T12:52:43.865Z,9.20
2018-01-28T12:55:11.375Z,9.25
2018-01-28T12:57:38.891Z,9.14
2018-01-28T13:00:06.406Z,9.32
2018-01-28T13:02:33.956Z,9.31
2018-01-28T13:05:01.470Z,9.28
2018-01-28T13:07:28.984Z,9.32
2018-01-28T13:09:56.525Z,9.28
2018-01-28T13:12:24.054Z,9.28
2018-01-28T13:14:51.585Z,9.44
2018-01-28T13:17:19.162Z,9.33
2018-01-28T13:19:46.681Z,9.38
2018-01-28T13:22:14.220Z,9.44
2018-01-28T13:24:41.752Z,9.46
2018-01-28T13:27:09.266Z,9.64
2018-01-28T13:29:36.780Z,9.63
2018-01-28T13:32:04.341Z,9.68
2018-01-28T13:34:31.869Z,9.93
2018-01-28T13:36:59.392Z,9.98
2018-01-28T13:39:26.908Z,10.07
2018-01-28T13:41:54.416Z,10.12
2018-01-28T13:44:21.959Z,10.08
2018-01-28T13:46:49.481Z,10.05
2018-01-28T13:49:17.001Z,10.04
2018-01-28T13:51:44.602Z,10.13
2018-01-28T13:54:12.130Z,10.17
2018-01-28T13:56:39.690Z,10.13
2018-01-28T13:59:07.218Z,10.21
2018-01-28T14:01:34.873Z,10.22
2018-01-28T14:04:02.809Z,10.23
2018-01-28T14:06:30.348Z,10.20
2018-01-28T14:08:57.995Z,10.35
2018-01-28T14:11:25.526Z,10.24
2018-01-28T14:13:53.046Z,10.18
2018-01-28T14:16:20.608Z,10.24
2018-01-28T14:18:48.136Z,10.18
2018-01-28T14:21:15.688Z,10.22
2018-01-28T14:23:43.225Z,10.14
2018-01-28T14:26:10.759Z,10.12
2018-01-28T14:28:38.278Z,10.17
2018-01-28T14:31:06.335Z,10.22
2018-01-28T14:33:33.860Z,10.14
2018-01-28T14:36:01.405Z,10.17
2018-01-28T14:38:28.935Z,10.08
2018-01-28T14:40:56.455Z,10.09
2018-01-28T14:43:24.012Z,10.07
2018-01-28T14:45:51.548Z,10.07
2018-01-28T14:48:19.100Z,10.07
2018-01-28T14:50:46.621Z,9.99
2018-01-28T14:53:14.144Z,10.01
2018-01-28T14:55:41.679Z,9.96
2018-01-28T14:58:09.207Z,9.98
2018-01-28T15:00:36.728Z,9.99
2018-01-28T15:03:04.259Z,9.98
2018-01-28T15:05:31.785Z,9.96
2018-01-28T15:07:59.302Z,9.90
2018-01-28T15:10:26.831Z,9.89
2018-01-28T15:12:54.353Z,9.86
2018-01-28T15:15:21.951Z,9.90
2018-01-28T15:17:49.481Z,9.85
2018-01-28T15:20:16.999Z,9.87
2018-01-28T15:22:44.527Z,9.81
2018-01-28T15:25:12.059Z,9.83
2018-01-28T15:27:39.605Z,9.79
2018-01-28T15:30:07.146Z,9.80
2018-01-28T15:32:34.664Z,9.79
2018-01-28T15:35:02.194Z,9.78
2018-01-28T15:37:29.709Z,9.75
2018-01-28T15:39:57.257Z,9.72
2018-01-28T15:42:24.785Z,9.74
2018-01-28T15:44:52.369Z,9.65
2018-01-28T15:47:19.918Z,9.65
2018-01-28T15:49:47.448Z,9.61
2018-01-28T15:52:14.964Z,9.60
2018-01-28T15:54:42.481Z,9.55
2018-01-28T15:57:10.758Z,9.56
2018-01-28T15:59:38.297Z,9.56
2018-01-28T16:02:05.898Z,9.56
2018-01-28T16:04:33.423Z,9.59
2018-01-28T16:07:00.950Z,9.56
2018-01-28T16:09:28.486Z,9.58
2018-01-28T16:11:55.996Z,9.58
2018-01-28T16:14:23.516Z,9.58
2018-01-28T16:16:51.049Z,9.57
2018-01-28T16:19:18.567Z,9.56
2018-01-28T16:21:46.080Z,9.58
2018-01-28T16:24:13.653Z,9.59
2018-01-28T16:26:41.189Z,9.58
2018-01-28T16:29:08.707Z,9.63
2018-01-28T16:31:36.233Z,9.59
2018-01-28T16:34:03.753Z,9.61
2018-01-28T16:36:31.329Z,9.64
2018-01-28T16:38:58.865Z,9.63
2018-01-28T16:41:26.403Z,9.65
2018-01-28T16:43:53.926Z,9.68
2018-01-28T16:46:21.463Z,9.66
2018-01-28T16:48:48.993Z,9.70
2018-01-28T16:51:16.574Z,9.69
2018-01-28T16:53:44.146Z,9.69
2018-01-28T16:56:11.674Z,9.70
2018-01-28T16:58:39.253Z,9.81
2018-01-28T17:01:06.770Z,9.75
2018-01-28T17:03:34.294Z,9.80
2018-01-28T17:06:01.806Z,9.75
2018-01-28T17:08:29.328Z,9.82
2018-01-28T17:10:56.859Z,9.85
2018-01-28T17:13:24.386Z,9.86
2018-01-28T17:15:51.909Z,9.87
2018-01-28T17:18:19.446Z,9.89
2018-01-28T17:20:46.965Z,9.93
2018-01-28T17:23:14.545Z,9.92
2018-01-28T17:25:42.083Z,9.90
2018-01-28T17:28:09.601Z,9.93
2018-01-28T17:30:37.116Z,9.95
2018-01-28T17:33:04.637Z,9.96
2018-01-28T17:35:37.593Z,9.94
2018-01-28T17:38:05.301Z,9.97
2018-01-28T17:40:32.826Z,9.98
2018-01-28T17:43:00.364Z,9.93
2018-01-28T17:45:27.960Z,9.94
2018-01-28T17:47:55.482Z,9.91
2018-01-28T17:50:23.005Z,9.84
2018-01-28T17:52:50.532Z,9.85
2018-01-28T17:55:18.084Z,9.92
2018-01-28T17:57:45.616Z,9.85
2018-01-28T18:00:13.134Z,9.86
2018-01-28T18:02:40.668Z,9.84
2018-01-28T18:05:08.199Z,9.88
2018-01-28T18:07:35.720Z,9.83
2018-01-28T18:10:03.242Z,9.88
2018-01-28T18:12:30.763Z,9.88
2018-01-28T18:14:58.289Z,9.81
2018-01-28T18:17:25.902Z,9.85
2018-01-28T18:19:53.456Z,9.82
2018-01-28T18:22:20.996Z,9.81
2018-01-28T18:24:48.584Z,9.79
2018-01-28T18:27:16.112Z,9.76
2018-01-28T18:29:43.633Z,9.76
2018-01-28T18:32:11.257Z,9.76
2018-01-28T18:34:38.772Z,9.80
2018-01-28T18:37:06.293Z,9.75
2018-01-28T18:39:33.814Z,9.75
2018-01-28T18:42:01.398Z,9.72
2018-01-28T18:44:28.931Z,9.66
2018-01-28T18:46:56.468Z,9.56
2018-01-28T18:49:24.082Z,9.52
2018-01-28T18:51:51.754Z,9.48
2018-01-28T18:54:19.273Z,9.51
2018-01-28T18:56:46.856Z,9.30
2018-01-28T18:59:14.388Z,9.32
2018-01-28T19:01:41.917Z,9.22
2018-01-28T19:04:09.445Z,9.21
2018-01-28T19:06:36.968Z,9.24
2018-01-28T19:09:04.529Z,9.21
2018-01-28T19:11:32.112Z,9.12
2018-01-28T19:13:59.672Z,9.16
2018-01-28T19:16:27.208Z,9.20
2018-01-28T19:18:54.726Z,9.13
2018-01-28T19:21:22.245Z,9.08
2018-01-28T19:23:49.786Z,9.04
2018-01-28T19:26:17.296Z,9.05
2018-01-28T19:28:44.819Z,9.09
2018-01-28T19:31:12.362Z,9.06
2018-01-28T19:33:39.882Z,9.03
2018-01-28T19:36:07.411Z,9.03
2018-01-28T19:38:34.936Z,9.03
2018-01-28T19:41:02.466Z,9.06
2018-01-28T19:43:30.021Z,9.04
2018-01-28T19:45:57.551Z,8.99
2018-01-28T19:48:25.107Z,8.97
2018-01-28T19:50:52.628Z,9.00
2018-01-28T19:53:20.172Z,8.99
2018-01-28T19:55:47.717Z,9.03
2018-01-28T19:58:15.242Z,9.02
2018-01-28T20:00:42.769Z,8.98
2018-01-28T20:03:10.283Z,8.86
2018-01-28T20:05:37.819Z,8.94
2018-01-28T20:08:05.341Z,8.95
2018-01-28T20:10:32.874Z,8.88
2018-01-28T20:13:00.391Z,8.96
2018-01-28T20:15:28.011Z,8.88
2018-01-28T20:17:55.550Z,8.80
2018-01-28T20:20:23.173Z,8.92
2018-01-28T20:22:50.701Z,8.86
2018-01-28T20:25:18.230Z,8.83
2018-01-28T20:27:45.752Z,8.82
2018-01-28T20:30:13.281Z,8.75
2018-01-28T20:32:40.800Z,8.75
2018-01-28T20:35:08.323Z,8.79
2018-01-28T20:37:35.836Z,8.72
2018-01-28T20:40:03.405Z,8.69
2018-01-28T20:42:30.959Z,8.72
2018-01-28T20:44:58.546Z,8.67
2018-01-28T20:47:26.137Z,8.67
2018-01-28T20:49:53.813Z,8.64
2018-01-28T20:52:21.401Z,8.63
2018-01-28T20:57:21.606Z,8.63
2018-01-28T20:59:49.121Z,8.62
2018-01-28T21:02:16.745Z,8.61
2018-01-28T21:04:44.317Z,8.65
2018-01-28T21:07:11.837Z,8.62
2018-01-28T21:09:39.404Z,8.59
2018-01-28T21:12:06.990Z,8.66
2018-01-28T21:14:34.553Z,8.60
2018-01-28T21:17:02.109Z,8.57
2018-01-28T21:19:29.645Z,8.61
2018-01-28T21:21:57.165Z,8.63
2018-01-28T21:24:24.682Z,8.67
2018-01-28T21:26:52.208Z,8.63
2018-01-28T21:29:19.768Z,8.61
2018-01-28T21:31:47.308Z,8.64
2018-01-28T21:34:14.821Z,8.68
2018-01-28T21:36:42.382Z,8.70
2018-01-28T21:39:09.896Z,8.72
2018-01-28T21:41:37.426Z,8.72
2018-01-28T21:44:04.956Z,8.76
2018-01-28T21:46:32.475Z,8.77
2018-01-28T21:49:00.011Z,8.81
2018-01-28T21:51:27.545Z,8.85
2018-01-28T21:53:55.061Z,8.87
2018-01-28T21:56:22.615Z,8.89
2018-01-28T21:58:50.170Z,8.93
2018-01-28T22:01:17.698Z,8.91
2018-01-28T22:03:45.228Z,8.96
2018-01-28T22:06:12.745Z,9.30
2018-01-28T22:08:40.277Z,9.21
2018-01-28T22:11:07.804Z,9.11
2018-01-28T22:13:35.326Z,9.14
2018-01-28T22:16:02.848Z,9.19
2018-01-28T22:18:30.463Z,9.24
2018-01-28T22:20:57.986Z,9.29
2018-01-28T22:23:25.514Z,9.31
2018-01-28T22:25:53.150Z,9.36
2018-01-28T22:28:20.706Z,9.39
2018-01-28T22:30:48.227Z,9.40
2018-01-28T22:33:15.736Z,9.44
2018-01-28T22:35:43.252Z,9.45
2018-01-28T22:38:10.825Z,9.47
2018-01-28T22:40:38.337Z,9.53
2018-01-28T22:43:05.892Z,9.54
2018-01-28T22:45:33.521Z,9.60
2018-01-28T22:48:01.168Z,9.61
2018-01-28T22:50:28.727Z,9.72
2018-01-28T22:52:56.390Z,9.67
2018-01-28T22:55:23.915Z,9.69
2018-01-28T22:57:51.498Z,9.70
2018-01-28T23:00:19.060Z,9.71
2018-01-28T23:02:46.576Z,9.73
2018-01-28T23:05:14.087Z,9.76
2018-01-28T23:07:41.664Z,9.79
2018-01-28T23:10:09.241Z,9.83
2018-01-28T23:12:36.757Z,9.88
2018-01-28T23:15:04.303Z,9.83
2018-01-28T23:17:31.826Z,9.82
2018-01-28T23:19:59.873Z,9.85
2018-01-28T23:22:27.397Z,9.87
2018-01-28T23:24:54.956Z,9.89
2018-01-28T23:27:22.479Z,9.89
2018-01-28T23:29:49.998Z,9.91
2018-01-28T23:32:17.511Z,9.93
2018-01-28T23:34:45.128Z,9.91
2018-01-28T23:37:12.653Z,9.89
2018-01-28T23:39:40.173Z,9.92
2018-01-28T23:42:07.685Z,9.94
2018-01-28T23:44:35.203Z,9.98
2018-01-28T23:47:02.724Z,9.95
2018-01-28T23:49:30.255Z,9.97
2018-01-28T23:51:57.857Z,9.98
2018-01-28T23:54:25.413Z,9.97
2018-01-28T23:56:52.929Z,9.97
2018-01-28T23:59:20.458Z,10.01
